BUR weather

Bob Hope Airport
Burbank, California, United States

Public forecast

Using degrees Fahrenheit for public forecast. Weather courtesy of forecast.io.

METAR (pilot weather report)

Retrieved 2019/03/25 04:53 UTC (1 hour ago):

KBUR 250453Z 10007KT 10SM CLR 14/09 A3016 RMK AO2 SLP204 T01440094

TAF (pilot weather forecast)

Forecast is more than 12 hours old.

Retrieved 2019/03/24 00:54 UTC (1 day ago):

TAF KBUR 242352Z 2500/2524 18008KT P6SM SKC FM250300 VRB03KT P6SM SKC FM252000 19008KT P6SM SKC